Diamond, Scott
United StatesManBorn 19601997 – 2012Runner id 104170
Events
39
1997 – 2012
Best pace
11.685
km/h · 2000
Best finish
1st
of 53 · 1999
Distance raced
2,802
km · splits not double-counted
Pace over time
km/h · higher is faster
Pace over time: 39 races from 1997 to 2012, ranging from 5.37 to 11.97 kilometres per hour, where higher is faster. A second, age-graded series is drawn above it; the gap between the two is the age credit.
- Actual pace
- Age-graded pace
Results
| Date | Event | Distance | Result | Pace km/h | Placing |
|---|---|---|---|---|---|
| 1997-09-13 | McKenzie River 50 km Trail RunUnited States | 50km | 5:14:32 h | 9.538 | 9/34 |
| 1998-07-25 | 50mi | 8:50:47 h | 9.096 | 8/15 | |
| 1998-10-25 | ORRC Autumn Leaves 50 Mile RunUnited States | 50mi | 7:05:16 h | 11.353 | 3/19 |
| 1999-03-20 | 24h | 191.511 km | 7.980 | 1/53 | |
| 1999-07-24 | 47.6mi | 10:41:34 h | 7.164 | 48/60 | |
| 1999-08-22 | 50mi | 9:55:00 h | 8.114 | 10/23 | |
| 1999-10-24 | ORRC Autumn Leaves 50 Mile RunUnited States | 50mi | 8:08:45 h | 9.878 | 7/21 |
| 2000-04-29 | 50km | 6:57:20 h | 7.188 | 113/170 | |
| 2000-07-08 | 48.6km | 5:08:14 h | 9.460 | 33/91 | |
| 2000-07-29 | 47.6mi | 9:31:48 h | 8.038 | 20/54 | |
| 2000-08-12 | 50mi | 8:22:33 h | 9.607 | 8/46 | |
| 2000-09-09 | McKenzie River 50 km Trail RunUnited States | 50km | 4:16:44 h | 11.685 | 10/79 |
| 2000-09-30 | 100mi | 29:59:04 h | 5.367 | 60/108 | |
| 2001-03-17 | 50mi | 9:22:53 h | 8.577 | 8/42 | |
| 2001-04-28 | 50km | 6:16:54 h | 7.960 | 69/154 | |
| 2001-06-10 | Bendistillery 50kUnited States | 50km | 4:45:08 h | 10.521 | 13/37 |
| 2001-07-14 | 50km | 6:03:59 h | 8.242 | 48/92 | |
| 2001-07-28 | 50mi | 11:36:20 h | 6.934 | 106/128 | |
| 2001-08-11 | Mt. Hood 50 Mile Trail RunUnited States | 50mi | 9:40:13 h | 8.321 | 21/49 |
| 2001-12-09 | OTHTC High Desert 50K UltraUnited States | 50km | 5:28:36 h | 9.130 | 87/198 |
| 2002-04-06 | American River 50 Mile Endurance RunUnited States | 50mi | 9:56:16 h | 8.097 | 205/421 |
| 2002-08-10 | 50km | 6:14:04 h | 8.020 | 23/44 | |
| 2003-04-26 | 50km | 7:14:54 h | 6.898 | 130/177 | |
| 2003-08-02 | 50mi | 10:30:24 h | 7.659 | 23/50 | |
| 2003-11-06 | ORRC Autumn Leaves 50 Mile RunUnited States | 50mi | 8:08:34 h | 9.882 | 7/14 |
| 2004-04-03 | American River 50 Mile Endurance RunUnited States | 50mi | 8:26:49 h | 9.526 | 51/461 |
| 2004-04-18 | Peterson Ridge Rumble 35 Mile Trail RunUnited States | 35mi | 5:55:45 h | 9.500 | 40/77 |
| 2004-05-10 | 50km | 5:41:14 h | 8.792 | 44/153 | |
| 2004-05-22 | Watershed Preserve 12 Hr Trail RaceUnited States | 12h | 104.310 km | 8.693 | 2/17 |
| 2004-07-10 | Siskiyou Out Back 50 km Trail RunUnited States | 50km | 5:20:24 h | 9.363 | 37/123 |
| 2004-07-31 | 50mi | 8:27:42 h | 9.510 | 8/79 | |
| 2004-09-11 | McKenzie River 50 km Trail RunUnited States | 50km | 5:34:25 h | 8.971 | 42/96 |
| 2006-11-04 | ORRC Autumn Leaves 50 Mile RunUnited States | 50mi | 8:31:28 h | 9.440 | 15/29 |
| 2007-05-19 | 50km | 6:24:03 h | 7.811 | 93/160 | |
| 2007-07-28 | 50mi | 10:29:20 h | 7.672 | 45/80 | |
| 2008-02-23 | 50km | 5:42:48 h | 8.751 | 73/123 | |
| 2008-05-10 | 50km | 6:17:41 h | 7.943 | 90/161 | |
| 2009-02-21 | 50km | 5:31:33 h | 9.048 | 53/118 | |
| 2012-10-27 | ORRC Autumn Leaves 50 Mile RunUnited States | 50mi | 10:04:04 h | 7.993 | 28/39 |